Gabby Miller — WDE3399 — position and weather

sailwx.info

Track history (hours):
 
Tides and Currents Weather Stations Pressure Air Temp Water Temp Dewpoint Dewpoint Depression Visibility Wind Speed Wind Dir Waves Ship Positions

Gabby Miller

Owner: Miller's Launch, Staten Island, NY. More information available from US FCC via Universal Licensing System and Coast Guard Vessel Documentation Center.

Last reported at 2017-Nov-30 23:15 UTC. Time now 2017-Dec-11 11:30 UTC.
Position N 40°38' W 074°04'.
Warning: this ship's position is 10 days out of date.

Length 5 m; draft 2 m.

Type: Other ship. MMSI: 367338610.

Date/timePositionNaut miles runAvg speedWind from/ knotsBaromVisibWave heightAir tempDewpointWater temp
2017-Nov-30 23:15N 40°38' W 074°04'1 4.9
2017-Nov-30 22:59N 40°39' W 074°04'3 6.4
2017-Nov-30 22:30N 40°42' W 074°02'3 5.9
2017-Nov-30 22:00N 40°45' W 074°01'1 1.0
2017-Nov-30 21:30N 40°46' W 074°01'0 0.2
2017-Nov-30 21:00N 40°46' W 074°01'0 0.1
2017-Nov-30 20:30N 40°46' W 074°01'2 3.6
2017-Nov-30 20:00N 40°44' W 074°01'3 7.0
2017-Nov-30 19:30N 40°41' W 074°03'3 5.2
2017-Nov-30 18:59N 40°38' W 074°04'0 0.0
2017-Nov-30 18:28N 40°38' W 074°04'0 0.0
2017-Nov-29 21:08N 40°38' W 074°04'0 0.1
2017-Nov-29 20:56N 40°38' W 074°04'0 0.0
2017-Nov-29 20:29N 40°38' W 074°04'2 4.0
2017-Nov-29 19:59N 40°40' W 074°02'3 6.0
2017-Nov-29 19:29N 40°42' W 074°00'0 0.4
2017-Nov-29 19:00N 40°42' W 074°00'2 3.6
2017-Nov-29 18:30N 40°40' W 074°01'2 4.2
2017-Nov-29 17:59N 40°40' W 074°04'4 6.9
2017-Nov-29 17:26N 40°39' W 074°08'3 6.6
2017-Nov-29 17:00N 40°41' W 074°08'4 7.1
2017-Nov-29 16:29N 40°44' W 074°05'0 0.3
2017-Nov-29 16:00N 40°44' W 074°05'1 1.3
2017-Nov-29 15:29N 40°44' W 074°06'1 2.2
2017-Nov-29 15:00N 40°43' W 074°06'2 4.1
2017-Nov-29 14:29N 40°41' W 074°08'2 4.6
2017-Nov-29 14:00N 40°39' W 074°09'2 3.0
2017-Nov-29 13:29N 40°39' W 074°07'2 4.0
2017-Nov-29 13:00N 40°39' W 074°04'1 0.1
2017-Nov-28 22:10N 40°38' W 074°04'0 0.2
2017-Nov-28 22:00N 40°38' W 074°04'0 0.0
2017-Nov-28 21:09N 40°38' W 074°04'1 4.2
2017-Nov-28 20:59N 40°39' W 074°04'2 4.6
2017-Nov-28 20:30N 40°41' W 074°03'2 4.4
2017-Nov-28 20:00N 40°43' W 074°02'1 1.4
2017-Nov-28 19:30N 40°44' W 074°02'0 0.1
2017-Nov-28 19:00N 40°43' W 074°02'0 0.1
2017-Nov-28 18:30N 40°44' W 074°02'2 3.4
2017-Nov-28 18:00N 40°42' W 074°02'4 7.6
2017-Nov-28 17:30N 40°38' W 074°04'1 1.1
2017-Nov-28 17:00N 40°38' W 074°04'0 0.0
2017-Nov-28 16:30N 40°38' W 074°04'0 0.0
2017-Nov-28 16:00N 40°38' W 074°04'0 0.0
2017-Nov-28 14:58N 40°38' W 074°04'0 0.7
2017-Nov-28 14:30N 40°38' W 074°04'0 0.0
2017-Nov-28 14:00N 40°38' W 074°04'0 0.0
2017-Nov-28 13:29N 40°38' W 074°04'0 0.0
2017-Nov-28 12:58N 40°38' W 074°04'  
Track history (hours):
 
Tides and Currents Weather Stations Pressure Air Temp Water Temp Dewpoint Dewpoint Depression Visibility Wind Speed Wind Dir Waves Ship Positions

Gabby Miller

Owner: Miller's Launch, Staten Island, NY. More information available from US FCC via Universal Licensing System and Coast Guard Vessel Documentation Center.

Last reported at 2017-Nov-30 23:15 UTC. Time now 2017-Dec-11 11:30 UTC.
Position N 40°38' W 074°04'.
Warning: this ship's position is 10 days out of date.

Length 5 m; draft 2 m.

Type: Other ship. MMSI: 367338610.

Date/timePositionNaut miles runAvg speedWind from/ knotsBaromVisibWave heightAir tempDewpointWater temp
2017-Nov-30 23:15N 40°38' W 074°04'1 4.9
2017-Nov-30 22:59N 40°39' W 074°04'3 6.4
2017-Nov-30 22:30N 40°42' W 074°02'3 5.9
2017-Nov-30 22:00N 40°45' W 074°01'1 1.0
2017-Nov-30 21:30N 40°46' W 074°01'0 0.2
2017-Nov-30 21:00N 40°46' W 074°01'0 0.1
2017-Nov-30 20:30N 40°46' W 074°01'2 3.6
2017-Nov-30 20:00N 40°44' W 074°01'3 7.0
2017-Nov-30 19:30N 40°41' W 074°03'3 5.2
2017-Nov-30 18:59N 40°38' W 074°04'0 0.0
2017-Nov-30 18:28N 40°38' W 074°04'0 0.0
2017-Nov-29 21:08N 40°38' W 074°04'0 0.1
2017-Nov-29 20:56N 40°38' W 074°04'0 0.0
2017-Nov-29 20:29N 40°38' W 074°04'2 4.0
2017-Nov-29 19:59N 40°40' W 074°02'3 6.0
2017-Nov-29 19:29N 40°42' W 074°00'0 0.4
2017-Nov-29 19:00N 40°42' W 074°00'2 3.6
2017-Nov-29 18:30N 40°40' W 074°01'2 4.2
2017-Nov-29 17:59N 40°40' W 074°04'4 6.9
2017-Nov-29 17:26N 40°39' W 074°08'3 6.6
2017-Nov-29 17:00N 40°41' W 074°08'4 7.1
2017-Nov-29 16:29N 40°44' W 074°05'0 0.3
2017-Nov-29 16:00N 40°44' W 074°05'1 1.3
2017-Nov-29 15:29N 40°44' W 074°06'1 2.2
2017-Nov-29 15:00N 40°43' W 074°06'2 4.1
2017-Nov-29 14:29N 40°41' W 074°08'2 4.6
2017-Nov-29 14:00N 40°39' W 074°09'2 3.0
2017-Nov-29 13:29N 40°39' W 074°07'2 4.0
2017-Nov-29 13:00N 40°39' W 074°04'1 0.1
2017-Nov-28 22:10N 40°38' W 074°04'0 0.2
2017-Nov-28 22:00N 40°38' W 074°04'0 0.0
2017-Nov-28 21:09N 40°38' W 074°04'1 4.2
2017-Nov-28 20:59N 40°39' W 074°04'2 4.6
2017-Nov-28 20:30N 40°41' W 074°03'2 4.4
2017-Nov-28 20:00N 40°43' W 074°02'1 1.4
2017-Nov-28 19:30N 40°44' W 074°02'0 0.1
2017-Nov-28 19:00N 40°43' W 074°02'0 0.1
2017-Nov-28 18:30N 40°44' W 074°02'2 3.4
2017-Nov-28 18:00N 40°42' W 074°02'4 7.6
2017-Nov-28 17:30N 40°38' W 074°04'1 1.1
2017-Nov-28 17:00N 40°38' W 074°04'0 0.0
2017-Nov-28 16:30N 40°38' W 074°04'0 0.0
2017-Nov-28 16:00N 40°38' W 074°04'0 0.0
2017-Nov-28 14:58N 40°38' W 074°04'0 0.7
2017-Nov-28 14:30N 40°38' W 074°04'0 0.0
2017-Nov-28 14:00N 40°38' W 074°04'0 0.0
2017-Nov-28 13:29N 40°38' W 074°04'0 0.0
2017-Nov-28 12:58N 40°38' W 074°04'  

Dump ship's entire track history